createdAt,value
2023-02-07T00:01:42.368Z,-1.23
2023-02-07T00:04:09.070Z,-1.33
2023-02-07T00:06:36.280Z,-1.38
2023-02-07T00:09:03.832Z,-1.37
2023-02-07T00:11:30.641Z,-1.38
2023-02-07T00:13:57.828Z,-1.35
2023-02-07T00:16:26.328Z,-1.31
2023-02-07T00:18:53.407Z,-1.26
2023-02-07T00:21:23.725Z,-1.24
2023-02-07T00:23:51.074Z,-1.20
2023-02-07T00:26:18.114Z,-1.29
2023-02-07T00:28:45.889Z,-1.31
2023-02-07T00:31:14.117Z,-1.26
2023-02-07T00:33:41.260Z,-1.18
2023-02-07T00:36:10.768Z,-1.20
2023-02-07T00:38:37.560Z,-1.27
2023-02-07T00:41:04.751Z,-1.36
2023-02-07T00:43:34.121Z,-1.35
2023-02-07T00:46:02.161Z,-1.37
2023-02-07T00:48:29.831Z,-1.37
2023-02-07T00:50:56.591Z,-1.40
2023-02-07T00:53:26.140Z,-1.40
2023-02-07T00:55:55.336Z,-1.39
2023-02-07T00:58:22.306Z,-1.40
2023-02-07T01:00:48.952Z,-1.44
2023-02-07T01:03:15.827Z,-1.43
2023-02-07T01:05:44.764Z,-1.51
2023-02-07T01:08:11.457Z,-1.55
2023-02-07T01:10:41.544Z,-1.61
2023-02-07T01:13:09.777Z,-1.65
2023-02-07T01:15:37.823Z,-1.65
2023-02-07T01:18:04.865Z,-1.59
2023-02-07T01:20:31.480Z,-1.56
2023-02-07T01:22:58.064Z,-1.51
2023-02-07T01:25:24.717Z,-1.52
2023-02-07T01:27:51.386Z,-1.48
2023-02-07T01:30:18.212Z,-1.52
2023-02-07T01:32:47.269Z,-1.48
2023-02-07T01:35:14.505Z,-1.45
2023-02-07T01:37:41.128Z,-1.48
2023-02-07T01:40:08.107Z,-1.50
2023-02-07T01:42:37.112Z,-1.64
2023-02-07T01:45:06.635Z,-1.81
2023-02-07T01:47:35.853Z,-1.78
2023-02-07T01:50:02.528Z,-1.82
2023-02-07T01:52:31.247Z,-1.84
2023-02-07T01:54:59.134Z,-1.80
2023-02-07T01:57:25.759Z,-1.93
2023-02-07T01:59:53.614Z,-1.87
2023-02-07T02:02:21.943Z,-1.83
2023-02-07T02:04:49.301Z,-1.88
2023-02-07T02:07:16.167Z,-1.81
2023-02-07T02:09:43.677Z,-1.75
2023-02-07T02:12:10.435Z,-1.76
2023-02-07T02:14:55.810Z,-1.77
2023-02-07T02:17:25.989Z,-1.74
2023-02-07T02:20:11.437Z,-1.71
2023-02-07T02:22:56.501Z,-1.71
2023-02-07T02:25:42.722Z,-1.75
2023-02-07T02:28:28.720Z,-1.78
2023-02-07T02:31:17.123Z,-1.79
2023-02-07T02:33:55.217Z,-1.80
2023-02-07T02:36:48.231Z,-1.78
2023-02-07T02:39:18.064Z,-1.76
2023-02-07T02:41:47.712Z,-1.79
2023-02-07T02:44:16.312Z,-1.84
2023-02-07T02:46:45.318Z,-1.87
2023-02-07T02:49:12.355Z,-1.95
2023-02-07T02:51:39.185Z,-2.00
2023-02-07T02:54:25.081Z,-1.98
2023-02-07T02:57:10.789Z,-2.08
2023-02-07T02:59:57.036Z,-2.07
2023-02-07T03:02:44.299Z,-2.04
2023-02-07T03:05:29.907Z,-2.03
2023-02-07T03:08:15.388Z,-2.11
2023-02-07T03:10:45.214Z,-2.14
2023-02-07T03:13:11.813Z,-2.16
2023-02-07T03:15:58.279Z,-2.11
2023-02-07T03:18:31.265Z,-2.06
2023-02-07T03:21:01.481Z,-2.07
2023-02-07T03:23:30.592Z,-2.06
2023-02-07T03:25:59.304Z,-2.01
2023-02-07T03:28:26.045Z,-1.97
2023-02-07T03:30:52.791Z,-2.02
2023-02-07T03:33:22.447Z,-2.01
2023-02-07T03:35:58.278Z,-2.01
2023-02-07T03:38:24.944Z,-2.01
2023-02-07T03:40:53.302Z,-2.06
2023-02-07T03:43:24.608Z,-2.02
2023-02-07T03:45:51.475Z,-2.06
2023-02-07T03:48:18.287Z,-2.05
2023-02-07T03:50:45.147Z,-2.05
2023-02-07T03:53:14.029Z,-2.08
2023-02-07T03:55:40.840Z,-2.32
2023-02-07T03:58:08.650Z,-2.65
2023-02-07T04:00:35.591Z,-2.70
2023-02-07T04:03:02.601Z,-2.62
2023-02-07T04:05:29.175Z,-2.54
2023-02-07T04:07:55.962Z,-2.44
2023-02-07T04:10:25.033Z,-2.50
2023-02-07T04:12:54.099Z,-2.72
2023-02-07T04:15:23.574Z,-2.96
2023-02-07T04:17:53.030Z,-3.00
2023-02-07T04:20:22.158Z,-2.99
2023-02-07T04:22:51.281Z,-2.85
2023-02-07T04:25:18.794Z,-2.71
2023-02-07T04:27:45.538Z,-2.60
2023-02-07T04:30:12.289Z,-2.52
2023-02-07T04:32:39.284Z,-2.48
2023-02-07T04:35:06.057Z,-2.44
2023-02-07T04:37:32.681Z,-2.43
2023-02-07T04:40:01.665Z,-2.45
2023-02-07T04:42:28.426Z,-2.50
2023-02-07T04:44:59.957Z,-2.57
2023-02-07T04:47:26.505Z,-2.56
2023-02-07T04:49:53.410Z,-2.48
2023-02-07T04:52:22.401Z,-2.43
2023-02-07T04:54:51.502Z,-2.45
2023-02-07T04:57:18.138Z,-2.42
2023-02-07T04:59:49.440Z,-2.42
2023-02-07T05:02:16.067Z,-2.44
2023-02-07T05:04:42.718Z,-2.42
2023-02-07T05:07:12.382Z,-2.49
2023-02-07T05:09:39.109Z,-2.70
2023-02-07T05:12:05.928Z,-2.85
2023-02-07T05:14:32.659Z,-2.78
2023-02-07T05:17:01.763Z,-2.75
2023-02-07T05:19:28.486Z,-2.78
2023-02-07T05:21:55.181Z,-2.71
2023-02-07T05:24:21.844Z,-2.64
2023-02-07T05:26:48.587Z,-2.56
2023-02-07T05:29:18.043Z,-2.63
2023-02-07T05:32:05.241Z,-2.64
2023-02-07T05:34:35.849Z,-2.61
2023-02-07T05:37:02.669Z,-2.67
2023-02-07T05:39:29.336Z,-2.65
2023-02-07T05:42:01.380Z,-2.66
2023-02-07T05:44:30.777Z,-2.64
2023-02-07T05:47:00.428Z,-2.67
2023-02-07T05:49:29.646Z,-2.71
2023-02-07T05:51:59.053Z,-2.74
2023-02-07T05:54:28.548Z,-2.65
2023-02-07T05:56:55.140Z,-2.70
2023-02-07T05:59:21.757Z,-2.64
2023-02-07T06:01:51.001Z,-2.63
2023-02-07T06:04:20.230Z,-2.58
2023-02-07T06:06:48.938Z,-2.57
2023-02-07T06:09:18.695Z,-2.54
2023-02-07T06:11:50.196Z,-2.52
2023-02-07T06:14:16.889Z,-2.45
2023-02-07T06:16:43.733Z,-2.45
2023-02-07T06:19:11.297Z,-2.42
2023-02-07T06:21:46.467Z,-2.36
2023-02-07T06:24:16.309Z,-2.32
2023-02-07T06:26:43.398Z,-2.32
2023-02-07T06:29:12.505Z,-2.24
2023-02-07T06:31:39.117Z,-2.16
2023-02-07T06:34:06.189Z,-2.13
2023-02-07T06:36:32.799Z,-2.21
2023-02-07T06:38:59.506Z,-2.40
2023-02-07T06:41:26.201Z,-2.52
2023-02-07T06:43:52.828Z,-2.49
2023-02-07T06:46:25.006Z,-2.78
2023-02-07T06:48:54.245Z,-2.89
2023-02-07T06:51:23.800Z,-2.72
2023-02-07T06:53:54.129Z,-2.61
2023-02-07T06:56:20.768Z,-2.62
2023-02-07T06:58:52.273Z,-2.47
2023-02-07T07:01:22.831Z,-2.33
2023-02-07T07:03:51.958Z,-2.21
2023-02-07T07:06:21.547Z,-2.07
2023-02-07T07:08:48.295Z,-1.95
2023-02-07T07:11:14.897Z,-1.87
2023-02-07T07:13:41.565Z,-1.83
2023-02-07T07:16:08.312Z,-1.75
2023-02-07T07:18:39.855Z,-1.66
2023-02-07T07:21:07.293Z,-1.63
2023-02-07T07:23:33.892Z,-1.57
2023-02-07T07:26:02.846Z,-1.53
2023-02-07T07:28:29.538Z,-1.44
2023-02-07T07:31:01.620Z,-1.31
2023-02-07T07:33:30.653Z,-1.15
2023-02-07T07:35:57.924Z,-1.11
2023-02-07T07:38:24.629Z,-1.03
2023-02-07T07:40:53.739Z,-0.99
2023-02-07T07:43:20.515Z,-0.98
2023-02-07T07:45:52.572Z,-0.90
2023-02-07T07:48:19.550Z,-0.88
2023-02-07T07:50:46.172Z,-0.78
2023-02-07T07:53:12.779Z,-0.65
2023-02-07T07:55:39.427Z,-0.55
2023-02-07T07:58:08.570Z,-0.47
2023-02-07T08:00:35.346Z,-0.48
2023-02-07T08:03:04.542Z,-0.36
2023-02-07T08:05:33.508Z,-0.28
2023-02-07T08:08:00.165Z,-0.11
2023-02-07T08:10:26.888Z,0.02
2023-02-07T08:12:55.904Z,-0.16
2023-02-07T08:15:22.526Z,0.05
2023-02-07T08:17:54.839Z,0.16
2023-02-07T08:20:21.535Z,0.22
2023-02-07T08:22:48.187Z,0.39
2023-02-07T08:25:14.738Z,0.47
2023-02-07T08:27:41.568Z,0.65
2023-02-07T08:30:08.838Z,0.55
2023-02-07T08:32:35.547Z,0.53
2023-02-07T08:35:02.220Z,0.62
2023-02-07T08:37:28.926Z,0.73
2023-02-07T08:39:58.394Z,0.94
2023-02-07T08:42:25.065Z,1.07
2023-02-07T08:44:52.014Z,1.18
2023-02-07T08:47:19.097Z,1.31
2023-02-07T08:49:45.786Z,1.29
2023-02-07T08:52:12.416Z,1.36
2023-02-07T08:54:39.150Z,1.51
2023-02-07T08:57:05.722Z,1.66
2023-02-07T08:59:32.430Z,1.77
2023-02-07T09:02:01.484Z,1.82
2023-02-07T09:04:31.029Z,1.92
2023-02-07T09:07:00.711Z,2.07
2023-02-07T09:09:27.357Z,2.17
2023-02-07T09:11:54.158Z,2.34
2023-02-07T09:14:20.840Z,2.48
2023-02-07T09:16:47.485Z,2.47
2023-02-07T09:19:16.261Z,2.43
2023-02-07T09:21:45.280Z,2.46
2023-02-07T09:24:12.298Z,2.47
2023-02-07T09:26:40.993Z,2.54
2023-02-07T09:29:11.527Z,2.66
2023-02-07T09:31:40.969Z,2.71
2023-02-07T09:34:09.963Z,2.95
2023-02-07T09:36:38.777Z,3.03
2023-02-07T09:39:05.924Z,2.99
2023-02-07T09:41:38.567Z,3.18
2023-02-07T09:44:21.046Z,3.56
2023-02-07T09:46:55.023Z,3.95
2023-02-07T09:49:23.799Z,4.20
2023-02-07T09:51:51.038Z,4.29
2023-02-07T09:54:24.335Z,4.35
2023-02-07T09:56:54.928Z,4.43
2023-02-07T09:59:30.926Z,4.45
2023-02-07T10:02:01.514Z,4.78
2023-02-07T10:04:30.582Z,4.72
2023-02-07T10:06:59.976Z,4.93
2023-02-07T10:09:33.517Z,5.10
2023-02-07T10:12:00.182Z,5.30
2023-02-07T10:14:53.061Z,5.14
2023-02-07T10:17:31.134Z,4.78
2023-02-07T10:20:04.502Z,4.75
2023-02-07T10:22:34.223Z,4.74
2023-02-07T10:25:04.013Z,4.85
2023-02-07T10:27:41.268Z,4.87
2023-02-07T10:30:16.365Z,4.86
2023-02-07T10:32:43.778Z,4.92
2023-02-07T10:35:31.184Z,5.13
2023-02-07T10:37:58.055Z,5.53
2023-02-07T10:40:28.738Z,5.93
2023-02-07T10:43:18.450Z,6.23
2023-02-07T10:45:51.889Z,6.48
2023-02-07T10:48:23.987Z,6.38
2023-02-07T10:50:53.529Z,6.37
2023-02-07T10:53:52.773Z,6.54
2023-02-07T10:56:22.532Z,6.56
2023-02-07T10:58:49.194Z,6.55
2023-02-07T11:01:22.338Z,6.80
2023-02-07T11:03:49.270Z,7.00
2023-02-07T11:06:28.707Z,7.10
2023-02-07T11:09:12.991Z,7.35
2023-02-07T11:11:40.805Z,7.46
2023-02-07T11:14:07.847Z,7.43
2023-02-07T11:16:34.480Z,7.24
2023-02-07T11:19:02.068Z,7.46
2023-02-07T11:21:28.826Z,7.40
2023-02-07T11:24:05.864Z,7.43
2023-02-07T11:26:32.980Z,7.40
2023-02-07T11:29:12.151Z,7.57
2023-02-07T11:31:38.983Z,7.74
2023-02-07T11:34:11.662Z,7.90
2023-02-07T11:36:39.160Z,8.12
2023-02-07T11:39:15.305Z,8.54
2023-02-07T11:41:44.838Z,8.95
2023-02-07T11:44:15.642Z,9.08
2023-02-07T11:46:43.265Z,9.38
2023-02-07T11:49:39.373Z,9.87
2023-02-07T11:52:05.941Z,9.82
2023-02-07T11:54:38.351Z,9.64
2023-02-07T11:57:06.374Z,9.44
2023-02-07T11:59:38.543Z,9.42
2023-02-07T12:02:20.854Z,9.66
2023-02-07T12:04:50.257Z,9.77
2023-02-07T12:07:20.179Z,9.66
2023-02-07T12:10:07.119Z,9.94
2023-02-07T12:12:56.340Z,10.51
2023-02-07T12:15:25.393Z,10.87
2023-02-07T12:17:58.390Z,11.13
2023-02-07T12:20:48.338Z,10.99
2023-02-07T12:23:41.294Z,11.19
2023-02-07T12:26:20.278Z,11.63
2023-02-07T12:29:13.512Z,11.89
2023-02-07T12:31:41.184Z,12.24
2023-02-07T12:34:13.342Z,12.03
2023-02-07T12:36:46.880Z,11.47
2023-02-07T12:39:16.536Z,11.45
2023-02-07T12:41:49.555Z,11.32
2023-02-07T12:44:27.042Z,11.28
2023-02-07T12:47:06.177Z,11.64
2023-02-07T12:49:39.209Z,11.47
2023-02-07T12:52:08.985Z,11.53
2023-02-07T12:54:43.169Z,11.64
2023-02-07T12:57:12.246Z,11.81
2023-02-07T12:59:53.491Z,11.75
2023-02-07T13:02:32.719Z,11.76
2023-02-07T13:05:19.654Z,11.49
2023-02-07T13:08:05.108Z,11.55
2023-02-07T13:10:46.366Z,11.88
2023-02-07T13:13:28.075Z,11.90
2023-02-07T13:16:24.890Z,12.49
2023-02-07T13:18:54.549Z,12.54
2023-02-07T13:21:42.436Z,12.28
2023-02-07T13:24:11.286Z,12.65
2023-02-07T13:26:37.903Z,12.92
2023-02-07T13:29:06.797Z,13.27
2023-02-07T13:31:37.960Z,13.40
2023-02-07T13:34:04.736Z,12.66
2023-02-07T13:36:36.789Z,12.38
2023-02-07T13:39:14.353Z,12.60
2023-02-07T13:41:46.258Z,12.66
2023-02-07T13:44:27.583Z,12.37
2023-02-07T13:47:12.559Z,12.04
2023-02-07T13:49:51.409Z,11.92
2023-02-07T13:52:36.830Z,11.19
2023-02-07T13:55:11.768Z,10.79
2023-02-07T13:58:00.396Z,11.76
2023-02-07T14:00:34.970Z,12.28
2023-02-07T14:03:06.459Z,12.70
2023-02-07T14:05:34.627Z,13.02
2023-02-07T14:08:02.492Z,12.50
2023-02-07T14:10:35.614Z,12.93
2023-02-07T14:13:02.768Z,13.01
2023-02-07T14:15:30.723Z,12.70
2023-02-07T14:18:06.566Z,13.31
2023-02-07T14:20:36.614Z,14.02
2023-02-07T14:23:06.645Z,14.54
2023-02-07T14:25:33.694Z,15.05
2023-02-07T14:28:07.572Z,15.38
2023-02-07T14:30:55.372Z,14.98
2023-02-07T14:33:25.024Z,15.04
2023-02-07T14:36:10.100Z,15.09
2023-02-07T14:38:40.163Z,14.93
2023-02-07T14:41:16.141Z,15.19
2023-02-07T14:44:07.445Z,15.16
2023-02-07T14:46:38.167Z,15.00
2023-02-07T14:49:13.621Z,14.50
2023-02-07T14:51:40.352Z,13.45
2023-02-07T14:54:25.613Z,12.46
2023-02-07T14:57:01.746Z,11.65
2023-02-07T14:59:40.268Z,10.75
2023-02-07T15:02:31.659Z,10.23
2023-02-07T15:04:59.039Z,9.64
2023-02-07T15:07:25.873Z,9.17
2023-02-07T15:09:54.746Z,8.81
2023-02-07T15:12:27.321Z,8.27
2023-02-07T15:14:57.367Z,7.89
2023-02-07T15:17:33.410Z,7.70
2023-02-07T15:20:05.443Z,7.61
2023-02-07T15:22:32.208Z,7.46
2023-02-07T15:24:58.955Z,7.26
2023-02-07T15:27:28.865Z,7.00
2023-02-07T15:29:59.565Z,6.84
2023-02-07T15:32:34.173Z,6.63
2023-02-07T15:35:27.546Z,6.43
2023-02-07T15:37:55.146Z,6.24
2023-02-07T15:40:28.550Z,6.09
2023-02-07T15:43:00.661Z,5.99
2023-02-07T15:45:33.733Z,5.94
2023-02-07T15:48:10.650Z,5.89
2023-02-07T15:50:37.975Z,5.74
2023-02-07T15:53:08.676Z,5.53
2023-02-07T15:55:38.390Z,5.42
2023-02-07T15:58:09.582Z,5.30
2023-02-07T16:00:37.899Z,5.08
2023-02-07T16:03:08.048Z,4.75
2023-02-07T16:05:38.763Z,4.44
2023-02-07T16:08:27.196Z,4.31
2023-02-07T16:10:53.938Z,4.10
2023-02-07T16:13:21.883Z,3.96
2023-02-07T16:15:55.064Z,3.73
2023-02-07T16:18:41.421Z,3.49
2023-02-07T16:21:21.630Z,3.42
2023-02-07T16:23:52.690Z,3.43
2023-02-07T16:26:20.606Z,3.47
2023-02-07T16:28:47.381Z,3.29
2023-02-07T16:31:14.157Z,3.20
2023-02-07T16:33:40.862Z,3.13
2023-02-07T16:36:13.351Z,3.12
2023-02-07T16:38:40.218Z,3.13
2023-02-07T16:41:07.014Z,3.05
2023-02-07T16:43:34.897Z,2.96
2023-02-07T16:46:05.008Z,2.88
2023-02-07T16:48:32.028Z,2.93
2023-02-07T16:51:03.315Z,2.93
2023-02-07T16:53:45.327Z,2.87
2023-02-07T16:56:32.557Z,2.95
2023-02-07T16:59:33.871Z,2.69
2023-02-07T17:02:03.253Z,2.41
2023-02-07T17:07:43.405Z,1.89
2023-02-07T17:17:17.043Z,1.61
2023-02-07T17:19:47.416Z,1.74
2023-02-07T17:22:19.371Z,1.70
2023-02-07T17:24:47.693Z,1.67
2023-02-07T17:27:14.683Z,1.69
2023-02-07T17:29:44.952Z,1.74
2023-02-07T17:32:14.325Z,1.83
2023-02-07T17:34:41.039Z,1.97
2023-02-07T17:37:09.737Z,2.11
2023-02-07T17:39:36.773Z,2.22
2023-02-07T17:42:03.446Z,2.22
2023-02-07T17:44:30.550Z,2.22
2023-02-07T17:47:00.653Z,2.23
2023-02-07T17:49:27.625Z,2.30
2023-02-07T17:51:54.618Z,2.26
2023-02-07T17:54:23.258Z,2.18
2023-02-07T17:56:52.416Z,2.21
2023-02-07T17:59:22.550Z,2.24
2023-02-07T18:01:49.206Z,2.23
2023-02-07T18:04:18.147Z,2.22
2023-02-07T18:06:49.278Z,2.18
2023-02-07T18:09:18.176Z,2.15
2023-02-07T18:11:48.715Z,2.18
2023-02-07T18:14:15.932Z,2.16
2023-02-07T18:16:44.831Z,2.17
2023-02-07T18:19:12.378Z,2.16
2023-02-07T18:21:45.318Z,2.18
2023-02-07T18:24:13.271Z,2.10
2023-02-07T18:26:40.211Z,2.01
2023-02-07T18:29:07.669Z,2.03
2023-02-07T18:31:34.875Z,1.95
2023-02-07T18:34:02.010Z,1.86
2023-02-07T18:36:35.192Z,1.79
2023-02-07T18:39:02.032Z,1.77
2023-02-07T18:41:29.525Z,1.68
2023-02-07T18:43:58.825Z,1.59
2023-02-07T18:46:25.809Z,1.44
2023-02-07T18:48:56.354Z,1.47
2023-02-07T18:51:26.393Z,1.48
2023-02-07T18:53:58.072Z,1.52
2023-02-07T18:56:27.732Z,1.52
2023-02-07T18:58:57.095Z,1.51
2023-02-07T19:01:28.001Z,1.53
2023-02-07T19:03:55.570Z,1.56
2023-02-07T19:06:23.458Z,1.64
2023-02-07T19:08:54.095Z,1.65
2023-02-07T19:11:21.094Z,1.65
2023-02-07T19:13:49.052Z,1.68
2023-02-07T19:16:19.021Z,1.65
2023-02-07T19:18:48.492Z,1.57
2023-02-07T19:21:16.481Z,1.47
2023-02-07T19:23:45.701Z,1.31
2023-02-07T19:26:12.457Z,1.31
2023-02-07T19:28:39.255Z,1.31
2023-02-07T19:31:09.976Z,1.30
2023-02-07T19:33:36.905Z,1.26
2023-02-07T19:36:07.932Z,1.22
2023-02-07T19:38:34.675Z,1.20
2023-02-07T19:41:01.769Z,1.17
2023-02-07T19:43:28.728Z,1.12
2023-02-07T19:45:57.712Z,1.05
2023-02-07T19:48:25.775Z,0.98
2023-02-07T19:51:02.772Z,1.01
2023-02-07T19:53:32.112Z,1.03
2023-02-07T19:56:02.525Z,1.01
2023-02-07T19:58:29.798Z,0.91
2023-02-07T20:00:56.851Z,0.93
2023-02-07T20:03:23.939Z,0.93
2023-02-07T20:05:50.599Z,0.90
2023-02-07T20:08:17.297Z,0.86
2023-02-07T20:10:44.906Z,0.80
2023-02-07T20:13:13.897Z,0.74
2023-02-07T20:15:43.669Z,0.75
2023-02-07T20:18:10.684Z,0.73
2023-02-07T20:20:43.528Z,0.70
2023-02-07T20:23:10.802Z,0.58
2023-02-07T20:25:38.174Z,0.55
2023-02-07T20:28:05.667Z,0.55
2023-02-07T20:30:37.085Z,0.50
2023-02-07T20:33:04.692Z,0.51
2023-02-07T20:35:34.166Z,0.56
2023-02-07T20:38:02.697Z,0.47
2023-02-07T20:40:29.380Z,0.41
2023-02-07T20:42:56.166Z,0.26
2023-02-07T20:45:22.761Z,0.21
2023-02-07T20:47:49.691Z,0.19
2023-02-07T20:50:19.019Z,0.26
2023-02-07T20:52:45.726Z,0.25
2023-02-07T20:55:15.505Z,0.33
2023-02-07T20:57:44.900Z,0.29
2023-02-07T21:00:11.836Z,0.29
2023-02-07T21:02:38.463Z,0.33
2023-02-07T21:05:05.189Z,0.26
2023-02-07T21:07:32.039Z,0.23
2023-02-07T21:09:58.757Z,0.19
2023-02-07T21:12:27.888Z,0.18
2023-02-07T21:14:58.985Z,0.15
2023-02-07T21:17:28.529Z,0.16
2023-02-07T21:19:55.186Z,0.15
2023-02-07T21:22:24.041Z,0.18
2023-02-07T21:24:50.924Z,0.19
2023-02-07T21:27:17.671Z,0.20
2023-02-07T21:29:44.742Z,0.18
2023-02-07T21:32:13.797Z,0.15
2023-02-07T21:34:42.523Z,0.16
2023-02-07T21:37:14.333Z,0.21
2023-02-07T21:39:40.997Z,0.27
2023-02-07T21:42:09.936Z,0.23
2023-02-07T21:44:39.072Z,0.21
2023-02-07T21:47:05.694Z,0.24
2023-02-07T21:49:32.270Z,0.19
2023-02-07T21:52:00.811Z,0.13
2023-02-07T21:54:30.376Z,0.16
2023-02-07T21:56:57.538Z,0.07
2023-02-07T21:59:24.145Z,0.10
2023-02-07T22:01:51.243Z,0.17
2023-02-07T22:04:20.475Z,0.12
2023-02-07T22:06:49.080Z,0.08
2023-02-07T22:09:18.909Z,0.04
2023-02-07T22:11:45.472Z,-0.02
2023-02-07T22:14:15.893Z,-0.17
2023-02-07T22:16:42.798Z,-0.20
2023-02-07T22:19:13.863Z,-0.18
2023-02-07T22:21:46.290Z,-0.14
2023-02-07T22:24:14.640Z,-0.10
2023-02-07T22:26:41.763Z,-0.06
2023-02-07T22:29:08.626Z,-0.10
2023-02-07T22:31:36.741Z,-0.12
2023-02-07T22:34:07.837Z,-0.09
2023-02-07T22:36:35.394Z,-0.12
2023-02-07T22:39:04.976Z,-0.07
2023-02-07T22:41:31.866Z,-0.03
2023-02-07T22:44:01.491Z,-0.03
2023-02-07T22:46:28.720Z,-0.01
2023-02-07T22:48:58.391Z,-0.08
2023-02-07T22:51:26.560Z,-0.01
2023-02-07T22:53:54.669Z,0.04
2023-02-07T22:56:24.020Z,-0.05
2023-02-07T22:58:57.566Z,-0.10
2023-02-07T23:01:28.377Z,-0.18
2023-02-07T23:03:55.224Z,-0.14
2023-02-07T23:06:22.395Z,-0.13
2023-02-07T23:08:53.987Z,-0.14
2023-02-07T23:11:21.423Z,-0.18
2023-02-07T23:13:48.697Z,-0.23
2023-02-07T23:16:22.439Z,-0.32
2023-02-07T23:18:49.589Z,-0.42
2023-02-07T23:21:19.480Z,-0.42
2023-02-07T23:23:46.271Z,-0.40
2023-02-07T23:26:14.483Z,-0.47
2023-02-07T23:28:41.266Z,-0.43
2023-02-07T23:31:11.045Z,-0.39
2023-02-07T23:33:40.270Z,-0.42
2023-02-07T23:36:09.405Z,-0.48
2023-02-07T23:38:36.885Z,-0.52
2023-02-07T23:41:03.582Z,-0.58
2023-02-07T23:43:30.731Z,-0.61
2023-02-07T23:45:57.484Z,-0.61
2023-02-07T23:48:29.572Z,-0.59
2023-02-07T23:50:56.953Z,-0.60
2023-02-07T23:53:26.494Z,-0.57
2023-02-07T23:55:54.007Z,-0.49
2023-02-07T23:58:23.410Z,-0.45
